Time;durP1;ratioP1;P1;durP2;ratioP2;P2;SDS_P1;SDS_P2;PMS_P1;PMS_P2;Temp;Humidity;BMP_temperature;BMP_pressure;BME280_temperature;BME280_humidity;BME280_pressure;Samples;Min_cycle;Max_cycle;Signal;HPM_P1;HPM_P2
2023/12/01 00:01:10;;;;;;;;;;;;;;;;;;5040747;28;19935;-75
2023/12/01 00:03:37;;;;;;;;;;;;;;;;;;5026100;28;19989;-76
2023/12/01 00:06:03;;;;;;;;;;;;;;;;;;5042644;28;19935;-75
2023/12/01 00:08:30;;;;;;;;;;;;;;;;;;5047505;28;19936;-73
2023/12/01 00:10:56;;;;;;;;;;;;;;;;;;5046404;28;19924;-76
2023/12/01 00:13:23;;;;;;;;;;;;;;;;;;5046281;28;19925;-74
2023/12/01 00:15:49;;;;;;;;;;;;;;;;;;5047899;28;19929;-77
2023/12/01 00:18:16;;;;;;;;;;;;;;;;;;5052373;28;19925;-74
2023/12/01 00:20:43;;;;;;;;;;;;;;;;;;5047888;28;20008;-74
2023/12/01 00:23:09;;;;;;;;;;;;;;;;;;5051747;28;19925;-77
2023/12/01 00:25:36;;;;;;;;;;;;;;;;;;5051873;28;19929;-75
2023/12/01 00:28:02;;;;;;;;;;;;;;;;;;5053533;28;20052;-75
2023/12/01 00:30:29;;;;;;;;;;;;;;;;;;5049586;28;19933;-76
2023/12/01 00:32:58;;;;;;;;;;;;;;;;;;5046865;28;20340;-76
2023/12/01 00:35:25;;;;;;;;;;;;;;;;;;5051905;28;19933;-75
2023/12/01 00:37:51;;;;;;;;;;;;;;;;;;5057128;28;19967;-76
2023/12/01 00:40:18;;;;;;;;;;;;;;;;;;5057088;28;20340;-74
2023/12/01 00:42:44;;;;;;;;;;;;;;;;;;5047992;28;20020;-75
2023/12/01 00:45:11;;;;;;;;;;;;;;;;;;5053166;28;19940;-74
2023/12/01 00:47:37;;;;;;;;;;;;;;;;;;5058107;28;20027;-76
2023/12/01 00:50:03;;;;;;;;;;;;;;;;;;5055064;28;19929;-73
2023/12/01 00:52:30;;;;;;;;;;;;;;;;;;5060444;28;19983;-75
2023/12/01 00:54:56;;;;;;;;;;;;;;;;;;5052134;28;19964;-75
2023/12/01 00:57:23;;;;;;;;;;;;;;;;;;5049955;28;19967;-75
2023/12/01 00:59:49;;;;;;;;;;;;;;;;;;5043038;28;19990;-75
2023/12/01 01:02:16;;;;;;;;;;;;;;;;;;5048441;28;19964;-75
2023/12/01 01:04:42;;;;;;;;;;;;;;;;;;5046598;28;19932;-77
2023/12/01 01:07:08;;;;;;;;;;;;;;;;;;5051551;28;19932;-74
2023/12/01 01:09:35;;;;;;;;;;;;;;;;;;5046904;28;19976;-75
2023/12/01 01:12:01;;;;;;;;;;;;;;;;;;5055151;28;19925;-75
2023/12/01 01:14:28;;;;;;;;;;;;;;;;;;5054262;28;19925;-76
2023/12/01 01:16:55;;;;;;;;;;;;;;;;;;5049028;28;19935;-75
2023/12/01 01:19:22;;;;;;;;;;;;;;;;;;5045050;28;19935;-74
2023/12/01 01:21:48;;;;;;;;;;;;;;;;;;5034131;28;19963;-75
2023/12/01 01:24:14;;;;;;;;;;;;;;;;;;5049351;28;20343;-76
2023/12/01 01:26:41;;;;;;;;;;;;;;;;;;5043354;28;19929;-75
2023/12/01 01:29:07;;;;;;;;;;;;;;;;;;5044859;28;19933;-77
2023/12/01 01:31:34;;;;;;;;;;;;;;;;;;5044888;28;19995;-74
2023/12/01 01:34:00;;;;;;;;;;;;;;;;;;5046226;28;19925;-76
2023/12/01 01:36:27;;;;;;;;;;;;;;;;;;5042081;28;20365;-76
2023/12/01 01:38:53;;;;;;;;;;;;;;;;;;5043722;28;19956;-75
2023/12/01 01:41:19;;;;;;;;;;;;;;;;;;5044172;28;19980;-75
2023/12/01 01:43:46;;;;;;;;;;;;;;;;;;5051785;28;19955;-75
2023/12/01 01:46:14;;;;;;;;;;;;;;;;;;5050636;28;19932;-76
2023/12/01 01:48:44;;;;;;;;;;;;;;;;;;5043418;28;19928;-74
2023/12/01 01:51:10;;;;;;;;;;;;;;;;;;5051425;28;19955;-77
2023/12/01 01:53:37;;;;;;;;;;;;;;;;;;5042648;28;19929;-74
2023/12/01 01:56:03;;;;;;;;;;;;;;;;;;5048640;28;19933;-74
2023/12/01 01:58:29;;;;;;;;;;;;;;;;;;5052350;28;19983;-75
2023/12/01 02:00:56;;;;;;;;;;;;;;;;;;5035586;28;20040;-75
2023/12/01 02:03:23;;;;;;;;;;;;;;;;;;5044748;28;19925;-75
2023/12/01 02:05:50;;;;;;;;;;;;;;;;;;5044319;28;19924;-75
2023/12/01 02:08:16;;;;;;;;;;;;;;;;;;5051174;28;19936;-74
2023/12/01 02:10:43;;;;;;;;;;;;;;;;;;5050004;28;19925;-77
2023/12/01 02:13:10;;;;;;;;;;;;;;;;;;5033088;28;20016;-76
2023/12/01 02:15:38;;;;;;;;;;;;;;;;;;5041930;28;19925;-74
2023/12/01 02:18:04;;;;;;;;;;;;;;;;;;5044289;28;19925;-76
2023/12/01 02:20:30;;;;;;;;;;;;;;;;;;5029941;28;19975;-75
2023/12/01 02:22:57;;;;;;;;;;;;;;;;;;5043473;28;19987;-74
2023/12/01 02:25:24;;;;;;;;;;;;;;;;;;5050248;28;19925;-75
2023/12/01 02:27:50;;;;;;;;;;;;;;;;;;5043592;28;19948;-75
2023/12/01 02:30:17;;;;;;;;;;;;;;;;;;5048558;28;20023;-76
2023/12/01 02:32:43;;;;;;;;;;;;;;;;;;5049694;28;20377;-74
2023/12/01 02:35:10;;;;;;;;;;;;;;;;;;5041886;28;20381;-75
2023/12/01 02:37:36;;;;;;;;;;;;;;;;;;5042665;28;20029;-76
2023/12/01 02:40:14;;;;;;;;;;;;;;;;;;5051490;28;19972;-74
2023/12/01 02:42:41;;;;;;;;;;;;;;;;;;5050826;28;19924;-78
2023/12/01 02:45:08;;;;;;;;;;;;;;;;;;5043736;28;19929;-74
2023/12/01 02:47:35;;;;;;;;;;;;;;;;;;5032939;28;19933;-74
2023/12/01 02:50:02;;;;;;;;;;;;;;;;;;5050360;28;19951;-75
2023/12/01 02:52:31;;;;;;;;;;;;;;;;;;5044747;28;19929;-74
2023/12/01 02:54:57;;;;;;;;;;;;;;;;;;5043068;28;19967;-76
2023/12/01 02:57:24;;;;;;;;;;;;;;;;;;5049793;28;19986;-75
2023/12/01 02:59:50;;;;;;;;;;;;;;;;;;5050207;28;19979;-76
2023/12/01 03:02:17;;;;;;;;;;;;;;;;;;5048025;28;20420;-74
2023/12/01 03:04:44;;;;;;;;;;;;;;;;;;5025657;28;20433;-75
2023/12/01 03:07:10;;;;;;;;;;;;;;;;;;5043360;28;19925;-75
2023/12/01 03:09:37;;;;;;;;;;;;;;;;;;5048030;28;19929;-76
2023/12/01 03:12:03;;;;;;;;;;;;;;;;;;5040249;28;19925;-75
2023/12/01 03:14:32;;;;;;;;;;;;;;;;;;5045628;28;19925;-74
2023/12/01 03:16:59;;;;;;;;;;;;;;;;;;5045129;28;19925;-76
2023/12/01 03:19:25;;;;;;;;;;;;;;;;;;5039423;28;19963;-75
2023/12/01 03:21:52;;;;;;;;;;;;;;;;;;5041400;28;19925;-75
2023/12/01 03:24:18;;;;;;;;;;;;;;;;;;5044324;28;20425;-75
2023/12/01 03:26:44;;;;;;;;;;;;;;;;;;5040850;28;19925;-75
2023/12/01 03:29:11;;;;;;;;;;;;;;;;;;5041538;28;19935;-77
2023/12/01 03:31:37;;;;;;;;;;;;;;;;;;5041197;28;19971;-75
2023/12/01 03:34:04;;;;;;;;;;;;;;;;;;5023983;28;20048;-74
2023/12/01 03:36:30;;;;;;;;;;;;;;;;;;5044564;28;19974;-76
2023/12/01 03:38:57;;;;;;;;;;;;;;;;;;5041800;28;20024;-76
2023/12/01 03:41:23;;;;;;;;;;;;;;;;;;5049745;28;19976;-76
2023/12/01 03:43:50;;;;;;;;;;;;;;;;;;5038066;28;20020;-73
2023/12/01 03:46:16;;;;;;;;;;;;;;;;;;5043072;28;19983;-75
2023/12/01 03:48:43;;;;;;;;;;;;;;;;;;5031918;28;20024;-76
2023/12/01 03:51:09;;;;;;;;;;;;;;;;;;5050326;28;19979;-76
2023/12/01 03:53:36;;;;;;;;;;;;;;;;;;5047750;28;19928;-75
2023/12/01 03:56:02;;;;;;;;;;;;;;;;;;5051320;28;19998;-74
2023/12/01 03:58:29;;;;;;;;;;;;;;;;;;5043739;28;19951;-76
2023/12/01 04:00:55;;;;;;;;;;;;;;;;;;5041683;28;20023;-75
2023/12/01 04:03:24;;;;;;;;;;;;;;;;;;5042851;28;19925;-74
2023/12/01 04:05:50;;;;;;;;;;;;;;;;;;5048991;28;19936;-74
2023/12/01 04:08:16;;;;;;;;;;;;;;;;;;5054554;28;19997;-76
2023/12/01 04:10:43;;;;;;;;;;;;;;;;;;5043369;28;19925;-76
2023/12/01 04:13:12;;;;;;;;;;;;;;;;;;5032461;28;20301;-75
2023/12/01 04:15:39;;;;;;;;;;;;;;;;;;5039947;28;19932;-75
2023/12/01 04:18:09;;;;;;;;;;;;;;;;;;5045373;28;19980;-76
2023/12/01 04:20:38;;;;;;;;;;;;;;;;;;5044678;28;19933;-75
2023/12/01 04:23:09;;;;;;;;;;;;;;;;;;5048798;28;20344;-74
2023/12/01 04:25:36;;;;;;;;;;;;;;;;;;5040602;28;19929;-74
2023/12/01 04:28:03;;;;;;;;;;;;;;;;;;5043750;28;19939;-75
2023/12/01 04:30:30;;;;;;;;;;;;;;;;;;5045979;28;19970;-75
2023/12/01 04:32:57;;;;;;;;;;;;;;;;;;5043675;28;19929;-74
2023/12/01 04:35:24;;;;;;;;;;;;;;;;;;5037737;28;20024;-75
2023/12/01 04:37:51;;;;;;;;;;;;;;;;;;5042289;28;19932;-74
2023/12/01 04:40:17;;;;;;;;;;;;;;;;;;5043767;28;19932;-75
2023/12/01 04:42:47;;;;;;;;;;;;;;;;;;5040972;28;19925;-75
2023/12/01 04:45:13;;;;;;;;;;;;;;;;;;5040309;28;19925;-74
2023/12/01 04:47:40;;;;;;;;;;;;;;;;;;5048508;28;19929;-74
2023/12/01 04:50:12;;;;;;;;;;;;;;;;;;5042735;28;20393;-75
2023/12/01 04:52:41;;;;;;;;;;;;;;;;;;5049723;28;19936;-74
2023/12/01 04:55:07;;;;;;;;;;;;;;;;;;5050405;28;20023;-76
2023/12/01 04:57:34;;;;;;;;;;;;;;;;;;5045204;28;19936;-75
2023/12/01 05:00:00;;;;;;;;;;;;;;;;;;5035661;28;19971;-74
2023/12/01 05:02:27;;;;;;;;;;;;;;;;;;5043579;28;20311;-74
2023/12/01 05:04:53;;;;;;;;;;;;;;;;;;5043725;28;19990;-75
2023/12/01 05:07:19;;;;;;;;;;;;;;;;;;5053713;28;20381;-75
2023/12/01 05:09:46;;;;;;;;;;;;;;;;;;5051787;28;19929;-74
2023/12/01 05:12:12;;;;;;;;;;;;;;;;;;5049690;28;19929;-74
2023/12/01 05:14:39;;;;;;;;;;;;;;;;;;5045080;28;19979;-75
2023/12/01 05:17:07;;;;;;;;;;;;;;;;;;5040085;28;19964;-76
2023/12/01 05:19:34;;;;;;;;;;;;;;;;;;5042400;28;19932;-76
2023/12/01 05:22:00;;;;;;;;;;;;;;;;;;5051525;28;19929;-73
2023/12/01 05:24:29;;;;;;;;;;;;;;;;;;5052063;28;19929;-74
2023/12/01 05:26:55;;;;;;;;;;;;;;;;;;5046383;28;19935;-75
2023/12/01 05:29:21;;;;;;;;;;;;;;;;;;5044561;28;19948;-75
2023/12/01 05:31:48;;;;;;;;;;;;;;;;;;5048167;28;19963;-76
2023/12/01 05:34:14;;;;;;;;;;;;;;;;;;5042656;28;19931;-74
2023/12/01 05:36:41;;;;;;;;;;;;;;;;;;5047503;28;19936;-75
2023/12/01 05:39:12;;;;;;;;;;;;;;;;;;5051150;28;19929;-74
2023/12/01 05:41:39;;;;;;;;;;;;;;;;;;5035085;28;20043;-75
2023/12/01 05:44:05;;;;;;;;;;;;;;;;;;5050787;28;19933;-76
2023/12/01 05:46:32;;;;;;;;;;;;;;;;;;5047293;28;19925;-75
2023/12/01 05:49:02;;;;;;;;;;;;;;;;;;5047656;28;20438;-76
2023/12/01 05:51:30;;;;;;;;;;;;;;;;;;5052038;28;20454;-76
2023/12/01 05:53:56;;;;;;;;;;;;;;;;;;5049508;28;20341;-75
2023/12/01 05:56:24;;;;;;;;;;;;;;;;;;5047796;28;20513;-74
2023/12/01 05:58:50;;;;;;;;;;;;;;;;;;5039728;28;19960;-75
2023/12/01 06:01:17;;;;;;;;;;;;;;;;;;5041162;28;19929;-76
2023/12/01 06:03:44;;;;;;;;;;;;;;;;;;5046599;28;20259;-75
2023/12/01 06:06:11;;;;;;;;;;;;;;;;;;5044535;28;19929;-74
2023/12/01 06:08:37;;;;;;;;;;;;;;;;;;5044191;28;19978;-76
2023/12/01 06:11:05;;;;;;;;;;;;;;;;;;5050266;28;19925;-74
2023/12/01 06:13:31;;;;;;;;;;;;;;;;;;5044404;28;20403;-75
2023/12/01 06:15:58;;;;;;;;;;;;;;;;;;5046358;28;19932;-74
2023/12/01 06:18:29;;;;;;;;;;;;;;;;;;5045023;28;19929;-73
2023/12/01 06:20:59;;;;;;;;;;;;;;;;;;5043523;28;19929;-75
2023/12/01 06:23:25;;;;;;;;;;;;;;;;;;5039721;28;19924;-76
2023/12/01 06:25:52;;;;;;;;;;;;;;;;;;5052491;28;19929;-77
2023/12/01 06:28:19;;;;;;;;;;;;;;;;;;5038105;28;19925;-73
2023/12/01 06:30:45;;;;;;;;;;;;;;;;;;5042005;28;19929;-75
2023/12/01 06:33:12;;;;;;;;;;;;;;;;;;5041087;28;19929;-74
2023/12/01 06:35:39;;;;;;;;;;;;;;;;;;5041425;28;19925;-75
2023/12/01 06:38:05;;;;;;;;;;;;;;;;;;5026796;28;19975;-75
2023/12/01 06:40:33;;;;;;;;;;;;;;;;;;5050998;28;20427;-75
2023/12/01 06:43:00;;;;;;;;;;;;;;;;;;5039863;28;20408;-74
2023/12/01 06:45:29;;;;;;;;;;;;;;;;;;5030512;28;19925;-76
2023/12/01 06:47:58;;;;;;;;;;;;;;;;;;5043551;28;20464;-78
2023/12/01 06:50:26;;;;;;;;;;;;;;;;;;5041818;28;19964;-76
2023/12/01 06:52:53;;;;;;;;;;;;;;;;;;5049063;28;19979;-74
2023/12/01 06:55:19;;;;;;;;;;;;;;;;;;5043329;28;19929;-76
2023/12/01 06:57:46;;;;;;;;;;;;;;;;;;5043137;28;19939;-74
2023/12/01 07:00:29;;;;;;;;;;;;;;;;;;5040083;28;19936;-74
2023/12/01 07:02:57;;;;;;;;;;;;;;;;;;5046076;28;20431;-75
2023/12/01 07:05:25;;;;;;;;;;;;;;;;;;5024168;28;19933;-74
2023/12/01 07:07:52;;;;;;;;;;;;;;;;;;5039257;28;19929;-75
2023/12/01 07:10:18;;;;;;;;;;;;;;;;;;5050866;28;19925;-77
2023/12/01 07:12:45;;;;;;;;;;;;;;;;;;5043934;28;19975;-76
2023/12/01 07:15:11;;;;;;;;;;;;;;;;;;5038294;28;20430;-73
2023/12/01 07:17:38;;;;;;;;;;;;;;;;;;5038604;28;19932;-77
2023/12/01 07:20:12;;;;;;;;;;;;;;;;;;5041829;28;19924;-75
2023/12/01 07:22:39;;;;;;;;;;;;;;;;;;5031050;28;20024;-76
2023/12/01 07:25:10;;;;;;;;;;;;;;;;;;5047717;28;20007;-74
2023/12/01 07:27:36;;;;;;;;;;;;;;;;;;5041694;28;19979;-75
2023/12/01 07:30:03;;;;;;;;;;;;;;;;;;5043324;28;19942;-76
2023/12/01 07:32:30;;;;;;;;;;;;;;;;;;5040414;28;19925;-75
2023/12/01 07:34:56;;;;;;;;;;;;;;;;;;5039426;28;19933;-74
2023/12/01 07:37:23;;;;;;;;;;;;;;;;;;5041568;28;19964;-75
2023/12/01 07:39:49;;;;;;;;;;;;;;;;;;5042197;28;19925;-75
2023/12/01 07:42:15;;;;;;;;;;;;;;;;;;5048868;28;19947;-76
2023/12/01 07:44:42;;;;;;;;;;;;;;;;;;5040658;28;20022;-75
2023/12/01 07:47:11;;;;;;;;;;;;;;;;;;5040766;28;20018;-75
2023/12/01 07:49:38;;;;;;;;;;;;;;;;;;5047303;28;19971;-75
2023/12/01 07:52:06;;;;;;;;;;;;;;;;;;5038850;28;20032;-74
2023/12/01 07:54:33;;;;;;;;;;;;;;;;;;5046615;28;19936;-74
2023/12/01 07:56:59;;;;;;;;;;;;;;;;;;5048695;28;19947;-76
2023/12/01 07:59:27;;;;;;;;;;;;;;;;;;5041126;28;19933;-74
2023/12/01 08:01:54;;;;;;;;;;;;;;;;;;5036881;28;19978;-74
2023/12/01 08:04:20;;;;;;;;;;;;;;;;;;5041795;28;19929;-74
2023/12/01 08:06:47;;;;;;;;;;;;;;;;;;5032064;28;19931;-74
2023/12/01 08:09:16;;;;;;;;;;;;;;;;;;5043458;28;19981;-74
2023/12/01 08:11:43;;;;;;;;;;;;;;;;;;5042236;28;19925;-74
2023/12/01 08:14:10;;;;;;;;;;;;;;;;;;5031272;28;19968;-76
2023/12/01 08:16:36;;;;;;;;;;;;;;;;;;5037737;28;19929;-76
2023/12/01 08:19:03;;;;;;;;;;;;;;;;;;5035758;28;20332;-74
2023/12/01 08:21:31;;;;;;;;;;;;;;;;;;5043261;28;19925;-74
2023/12/01 08:23:58;;;;;;;;;;;;;;;;;;5043447;28;19935;-75
2023/12/01 08:26:24;;;;;;;;;;;;;;;;;;5038079;28;20274;-75
2023/12/01 08:28:51;;;;;;;;;;;;;;;;;;5043165;28;20016;-74
2023/12/01 08:31:17;;;;;;;;;;;;;;;;;;5044386;28;19932;-74
2023/12/01 08:33:45;;;;;;;;;;;;;;;;;;5050401;28;19951;-76
2023/12/01 08:36:11;;;;;;;;;;;;;;;;;;5048533;28;19925;-74
2023/12/01 08:38:38;;;;;;;;;;;;;;;;;;5043422;28;19929;-74
2023/12/01 08:41:04;;;;;;;;;;;;;;;;;;5046256;28;19979;-76
2023/12/01 08:43:30;;;;;;;;;;;;;;;;;;5050151;28;19967;-74
2023/12/01 08:45:58;;;;;;;;;;;;;;;;;;5040443;28;19974;-76
2023/12/01 08:48:24;;;;;;;;;;;;;;;;;;5052677;28;20023;-73
2023/12/01 08:50:51;;;;;;;;;;;;;;;;;;5051322;28;19954;-73
2023/12/01 08:53:18;;;;;;;;;;;;;;;;;;5026360;28;20024;-74
2023/12/01 08:55:44;;;;;;;;;;;;;;;;;;5044295;28;20008;-73
2023/12/01 08:58:11;;;;;;;;;;;;;;;;;;5044345;28;20310;-74
2023/12/01 09:00:37;;;;;;;;;;;;;;;;;;5042494;28;20020;-74
2023/12/01 09:03:05;;;;;;;;;;;;;;;;;;5031059;28;19925;-73
2023/12/01 09:05:32;;;;;;;;;;;;;;;;;;5045172;28;20297;-74
2023/12/01 09:08:01;;;;;;;;;;;;;;;;;;5042893;28;20389;-74
2023/12/01 09:10:28;;;;;;;;;;;;;;;;;;5049872;28;20465;-75
2023/12/01 09:12:54;;;;;;;;;;;;;;;;;;5046032;28;20421;-73
2023/12/01 09:15:20;;;;;;;;;;;;;;;;;;5026054;28;19964;-77
2023/12/01 09:17:47;;;;;;;;;;;;;;;;;;5042814;28;19933;-75
2023/12/01 09:20:14;;;;;;;;;;;;;;;;;;5046406;28;19975;-74
2023/12/01 09:22:40;;;;;;;;;;;;;;;;;;5033325;28;19969;-76
2023/12/01 09:25:06;;;;;;;;;;;;;;;;;;5042282;28;20414;-76
2023/12/01 09:27:33;;;;;;;;;;;;;;;;;;5048720;28;19925;-74
2023/12/01 09:30:02;;;;;;;;;;;;;;;;;;5034016;28;20301;-76
2023/12/01 09:32:28;;;;;;;;;;;;;;;;;;5040836;28;19929;-76
2023/12/01 09:34:55;;;;;;;;;;;;;;;;;;5038675;28;20327;-76
2023/12/01 09:37:23;;;;;;;;;;;;;;;;;;5034585;28;19982;-78
2023/12/01 09:39:51;;;;;;;;;;;;;;;;;;5041612;28;20369;-75
2023/12/01 09:42:17;;;;;;;;;;;;;;;;;;5036940;28;19933;-74
2023/12/01 09:44:44;;;;;;;;;;;;;;;;;;5046023;28;19929;-75
2023/12/01 09:47:10;;;;;;;;;;;;;;;;;;5050656;28;19929;-75
2023/12/01 09:49:36;;;;;;;;;;;;;;;;;;5045869;28;20301;-76
2023/12/01 09:52:03;;;;;;;;;;;;;;;;;;5051073;28;20274;-73
2023/12/01 09:54:29;;;;;;;;;;;;;;;;;;5051100;28;19936;-73
2023/12/01 09:56:56;;;;;;;;;;;;;;;;;;5048243;28;20393;-74
2023/12/01 09:59:22;;;;;;;;;;;;;;;;;;5045163;28;19925;-75
2023/12/01 10:01:49;;;;;;;;;;;;;;;;;;5040176;28;19929;-73
2023/12/01 10:04:15;;;;;;;;;;;;;;;;;;5050853;28;19925;-76
2023/12/01 10:06:42;;;;;;;;;;;;;;;;;;5034345;28;19925;-74
2023/12/01 10:09:09;;;;;;;;;;;;;;;;;;5037207;28;19991;-75
2023/12/01 10:11:36;;;;;;;;;;;;;;;;;;5042274;28;20331;-74
2023/12/01 10:14:05;;;;;;;;;;;;;;;;;;5047773;28;19955;-74
2023/12/01 10:16:31;;;;;;;;;;;;;;;;;;5050949;28;19925;-75
2023/12/01 10:18:58;;;;;;;;;;;;;;;;;;5031357;28;19952;-73
2023/12/01 10:21:25;;;;;;;;;;;;;;;;;;5051666;28;20031;-76
2023/12/01 10:23:51;;;;;;;;;;;;;;;;;;5043618;28;20010;-76
2023/12/01 10:26:18;;;;;;;;;;;;;;;;;;5044402;28;19933;-74
2023/12/01 10:28:44;;;;;;;;;;;;;;;;;;5030363;28;19929;-75
2023/12/01 10:31:11;;;;;;;;;;;;;;;;;;5042691;28;19925;-74
2023/12/01 10:33:37;;;;;;;;;;;;;;;;;;5046047;28;19931;-74
2023/12/01 10:36:04;;;;;;;;;;;;;;;;;;5049659;28;19932;-75
2023/12/01 10:38:30;;;;;;;;;;;;;;;;;;5042020;28;19935;-74
2023/12/01 10:40:57;;;;;;;;;;;;;;;;;;5042954;28;19933;-76
2023/12/01 10:43:24;;;;;;;;;;;;;;;;;;5042772;28;19935;-74
2023/12/01 10:45:50;;;;;;;;;;;;;;;;;;5038776;28;20019;-75
2023/12/01 10:48:17;;;;;;;;;;;;;;;;;;5048026;28;19928;-74
2023/12/01 10:50:44;;;;;;;;;;;;;;;;;;5056527;28;20343;-73
2023/12/01 10:53:10;;;;;;;;;;;;;;;;;;5048563;28;19929;-76
2023/12/01 10:55:37;;;;;;;;;;;;;;;;;;5051502;28;19972;-75
2023/12/01 10:58:03;;;;;;;;;;;;;;;;;;5038831;28;20021;-74
2023/12/01 11:00:29;;;;;;;;;;;;;;;;;;5041108;28;19925;-75
2023/12/01 11:02:58;;;;;;;;;;;;;;;;;;5040946;28;20322;-73
2023/12/01 11:05:24;;;;;;;;;;;;;;;;;;5049539;28;19925;-76
2023/12/01 11:07:51;;;;;;;;;;;;;;;;;;5048204;28;19986;-74
2023/12/01 11:10:17;;;;;;;;;;;;;;;;;;5039937;28;20028;-76
2023/12/01 11:12:43;;;;;;;;;;;;;;;;;;5040875;28;19925;-74
2023/12/01 11:15:11;;;;;;;;;;;;;;;;;;5047346;28;19929;-74
2023/12/01 11:17:38;;;;;;;;;;;;;;;;;;5049691;28;20336;-75
2023/12/01 11:20:04;;;;;;;;;;;;;;;;;;5047434;28;19948;-74
2023/12/01 11:22:37;;;;;;;;;;;;;;;;;;5050102;28;19929;-74
2023/12/01 11:25:05;;;;;;;;;;;;;;;;;;5037548;28;19925;-77
2023/12/01 11:27:32;;;;;;;;;;;;;;;;;;5037345;28;19925;-75
2023/12/01 11:30:00;;;;;;;;;;;;;;;;;;5048329;28;19935;-73
2023/12/01 11:32:26;;;;;;;;;;;;;;;;;;5049951;28;20277;-75
2023/12/01 11:34:53;;;;;;;;;;;;;;;;;;5048539;28;20027;-74
2023/12/01 11:37:20;;;;;;;;;;;;;;;;;;5039457;28;19929;-74
2023/12/01 11:39:46;;;;;;;;;;;;;;;;;;5055352;28;20404;-74
2023/12/01 11:42:13;;;;;;;;;;;;;;;;;;5044691;28;20003;-75
2023/12/01 11:44:40;;;;;;;;;;;;;;;;;;5047492;28;19932;-73
2023/12/01 11:47:08;;;;;;;;;;;;;;;;;;5037873;28;19929;-75
2023/12/01 11:49:38;;;;;;;;;;;;;;;;;;5048507;28;20464;-74
2023/12/01 11:52:05;;;;;;;;;;;;;;;;;;5040767;28;19936;-73
2023/12/01 11:54:32;;;;;;;;;;;;;;;;;;5042690;28;19925;-74
2023/12/01 11:56:59;;;;;;;;;;;;;;;;;;5039362;28;20439;-73
2023/12/01 11:59:25;;;;;;;;;;;;;;;;;;5042739;28;19925;-75
2023/12/01 12:01:51;;;;;;;;;;;;;;;;;;5049714;28;19925;-75
2023/12/01 12:04:18;;;;;;;;;;;;;;;;;;5057307;28;20347;-74
2023/12/01 12:06:44;;;;;;;;;;;;;;;;;;5047302;28;20453;-73
2023/12/01 12:09:17;;;;;;;;;;;;;;;;;;5048660;28;19936;-76
2023/12/01 12:11:43;;;;;;;;;;;;;;;;;;5043697;28;20441;-74
2023/12/01 12:14:10;;;;;;;;;;;;;;;;;;5038398;28;19925;-77
2023/12/01 12:16:36;;;;;;;;;;;;;;;;;;5041822;28;20377;-75
2023/12/01 12:19:03;;;;;;;;;;;;;;;;;;5048410;28;19925;-75
2023/12/01 12:21:29;;;;;;;;;;;;;;;;;;5048816;28;19983;-76
2023/12/01 12:23:56;;;;;;;;;;;;;;;;;;5044453;28;20409;-76
2023/12/01 12:26:23;;;;;;;;;;;;;;;;;;5041759;28;19929;-78
2023/12/01 12:28:50;;;;;;;;;;;;;;;;;;5037821;28;20309;-75
2023/12/01 12:31:16;;;;;;;;;;;;;;;;;;5042490;28;19936;-73
2023/12/01 12:33:43;;;;;;;;;;;;;;;;;;5046490;28;20023;-75
2023/12/01 12:36:10;;;;;;;;;;;;;;;;;;5035093;28;19929;-76
2023/12/01 12:38:36;;;;;;;;;;;;;;;;;;5040870;28;20420;-73
2023/12/01 12:41:04;;;;;;;;;;;;;;;;;;5046740;28;19936;-74
2023/12/01 12:43:30;;;;;;;;;;;;;;;;;;5044878;28;19952;-75
2023/12/01 12:45:57;;;;;;;;;;;;;;;;;;5041307;28;19960;-74
2023/12/01 12:48:23;;;;;;;;;;;;;;;;;;5036603;28;19998;-73
2023/12/01 12:50:50;;;;;;;;;;;;;;;;;;5047000;28;19925;-74
2023/12/01 12:53:16;;;;;;;;;;;;;;;;;;5029962;28;20024;-74
2023/12/01 12:55:43;;;;;;;;;;;;;;;;;;5047436;28;20027;-75
2023/12/01 12:58:09;;;;;;;;;;;;;;;;;;5046563;28;20447;-74
2023/12/01 13:00:35;;;;;;;;;;;;;;;;;;5037017;28;19935;-75
2023/12/01 13:03:05;;;;;;;;;;;;;;;;;;5048064;28;19955;-74
2023/12/01 13:05:31;;;;;;;;;;;;;;;;;;5042790;28;20443;-73
2023/12/01 13:07:58;;;;;;;;;;;;;;;;;;5047572;28;20391;-73
2023/12/01 13:10:24;;;;;;;;;;;;;;;;;;5037199;28;20335;-74
2023/12/01 13:12:50;;;;;;;;;;;;;;;;;;5047449;28;19925;-75
2023/12/01 13:15:17;;;;;;;;;;;;;;;;;;5037486;28;19936;-74
2023/12/01 13:17:44;;;;;;;;;;;;;;;;;;5034951;28;20864;-74
2023/12/01 13:20:11;;;;;;;;;;;;;;;;;;5044637;28;19935;-75
2023/12/01 13:22:37;;;;;;;;;;;;;;;;;;5045156;28;20377;-74
2023/12/01 13:25:04;;;;;;;;;;;;;;;;;;5051366;28;19931;-74
2023/12/01 13:27:32;;;;;;;;;;;;;;;;;;5052383;28;19936;-73
2023/12/01 13:29:58;;;;;;;;;;;;;;;;;;5051708;28;20389;-75
2023/12/01 13:32:25;;;;;;;;;;;;;;;;;;5051255;28;20266;-74
2023/12/01 13:34:51;;;;;;;;;;;;;;;;;;5044499;28;20028;-75
2023/12/01 13:37:17;;;;;;;;;;;;;;;;;;5053047;28;19925;-74
2023/12/01 13:39:44;;;;;;;;;;;;;;;;;;5047650;28;19935;-74
2023/12/01 13:42:10;;;;;;;;;;;;;;;;;;5033271;28;20008;-73
2023/12/01 13:44:37;;;;;;;;;;;;;;;;;;5043620;28;19940;-73
2023/12/01 13:47:03;;;;;;;;;;;;;;;;;;5040891;28;19924;-75
2023/12/01 13:49:30;;;;;;;;;;;;;;;;;;5050712;28;19929;-74
2023/12/01 13:51:56;;;;;;;;;;;;;;;;;;5049970;28;19936;-73
2023/12/01 13:54:23;;;;;;;;;;;;;;;;;;5046429;28;19931;-73
2023/12/01 13:56:49;;;;;;;;;;;;;;;;;;5035332;28;19932;-76
2023/12/01 13:59:16;;;;;;;;;;;;;;;;;;5043505;28;19947;-73
2023/12/01 14:01:42;;;;;;;;;;;;;;;;;;5051073;28;19955;-75
2023/12/01 14:04:08;;;;;;;;;;;;;;;;;;5049349;28;20027;-75
2023/12/01 14:06:46;;;;;;;;;;;;;;;;;;5047989;28;19928;-74
2023/12/01 14:09:12;;;;;;;;;;;;;;;;;;5050652;28;19925;-74
2023/12/01 14:11:39;;;;;;;;;;;;;;;;;;5039643;28;20316;-74
2023/12/01 14:14:05;;;;;;;;;;;;;;;;;;5035057;28;19968;-74
2023/12/01 14:16:32;;;;;;;;;;;;;;;;;;5042512;28;20019;-74
2023/12/01 14:18:58;;;;;;;;;;;;;;;;;;5052370;28;20336;-75
2023/12/01 14:21:24;;;;;;;;;;;;;;;;;;5043700;28;19932;-75
2023/12/01 14:23:51;;;;;;;;;;;;;;;;;;5048814;28;19964;-77
2023/12/01 14:26:17;;;;;;;;;;;;;;;;;;5043499;28;19925;-74
2023/12/01 14:28:44;;;;;;;;;;;;;;;;;;5044142;28;19925;-74
2023/12/01 14:31:10;;;;;;;;;;;;;;;;;;5041556;28;19928;-75
2023/12/01 14:33:37;;;;;;;;;;;;;;;;;;5051086;28;19929;-75
2023/12/01 14:36:03;;;;;;;;;;;;;;;;;;5034055;28;19925;-75
2023/12/01 14:38:30;;;;;;;;;;;;;;;;;;5027613;28;20242;-75
2023/12/01 14:40:57;;;;;;;;;;;;;;;;;;5047111;28;19956;-75
2023/12/01 14:43:23;;;;;;;;;;;;;;;;;;5044143;28;20337;-73
2023/12/01 14:45:49;;;;;;;;;;;;;;;;;;5028983;28;19983;-74
2023/12/01 14:48:16;;;;;;;;;;;;;;;;;;5050989;28;19937;-73
2023/12/01 14:50:49;;;;;;;;;;;;;;;;;;5049287;28;19948;-73
2023/12/01 14:53:16;;;;;;;;;;;;;;;;;;5038184;28;19929;-73
2023/12/01 14:55:44;;;;;;;;;;;;;;;;;;5042634;28;20619;-73
2023/12/01 14:58:10;;;;;;;;;;;;;;;;;;5043935;28;19929;-75
2023/12/01 15:00:37;;;;;;;;;;;;;;;;;;5027882;28;19933;-75
2023/12/01 15:03:04;;;;;;;;;;;;;;;;;;5049270;28;19948;-73
2023/12/01 15:05:30;;;;;;;;;;;;;;;;;;5050472;28;20452;-74
2023/12/01 15:08:43;;;;;;;;;;;;;;;;;;5085280;27;19971;-74
2023/12/01 15:11:10;;;;;;;;;;;;;;;;;;5085701;28;19979;-76
2023/12/01 15:13:37;;;;;;;;;;;;;;;;;;5078381;28;19925;-75
2023/12/01 15:16:03;;;;;;;;;;;;;;;;;;5109647;28;20399;-74
2023/12/01 15:18:31;;;;;;;;;;;;;;;;;;5076719;28;19936;-73
2023/12/01 15:21:01;;;;;;;;;;;;;;;;;;5071058;28;19975;-74
2023/12/01 15:23:27;;;;;;;;;;;;;;;;;;5077328;28;20048;-74
2023/12/01 15:25:54;;;;;;;;;;;;;;;;;;5084001;28;19924;-75
2023/12/01 15:28:20;;;;;;;;;;;;;;;;;;5075458;28;20395;-73
2023/12/01 15:30:47;;;;;;;;;;;;;;;;;;5078260;28;19928;-74
2023/12/01 15:33:13;;;;;;;;;;;;;;;;;;5079594;28;20028;-75
2023/12/01 15:35:40;;;;;;;;;;;;;;;;;;5078753;28;19954;-75
2023/12/01 15:38:07;;;;;;;;;;;;;;;;;;5075372;28;19947;-75
2023/12/01 15:40:33;;;;;;;;;;;;;;;;;;5081295;28;19964;-75
2023/12/01 15:42:59;;;;;;;;;;;;;;;;;;5078217;28;19929;-73
2023/12/01 15:45:26;;;;;;;;;;;;;;;;;;5086536;28;20007;-75
2023/12/01 15:47:53;;;;;;;;;;;;;;;;;;5078704;28;19924;-74
2023/12/01 15:50:19;;;;;;;;;;;;;;;;;;5078430;28;19931;-74
2023/12/01 15:52:45;;;;;;;;;;;;;;;;;;5077597;28;19982;-74
2023/12/01 15:55:12;;;;;;;;;;;;;;;;;;5080041;28;19925;-75
2023/12/01 15:57:38;;;;;;;;;;;;;;;;;;5077550;28;19929;-73
2023/12/01 16:00:04;;;;;;;;;;;;;;;;;;5077635;28;20011;-74
2023/12/01 16:02:36;;;;;;;;;;;;;;;;;;5070763;28;19982;-74
2023/12/01 16:05:03;;;;;;;;;;;;;;;;;;5080180;28;19924;-75
2023/12/01 16:07:29;;;;;;;;;;;;;;;;;;5087591;28;20059;-76
2023/12/01 16:09:56;;;;;;;;;;;;;;;;;;5098493;28;19971;-74
2023/12/01 16:12:22;;;;;;;;;;;;;;;;;;5101284;28;19924;-73
2023/12/01 16:14:49;;;;;;;;;;;;;;;;;;5100067;28;20106;-74
2023/12/01 16:17:17;;;;;;;;;;;;;;;;;;5096847;28;19932;-76
2023/12/01 16:19:45;;;;;;;;;;;;;;;;;;5087664;28;19977;-74
2023/12/01 16:22:12;;;;;;;;;;;;;;;;;;5087662;28;19947;-76
2023/12/01 16:24:41;;;;;;;;;;;;;;;;;;5070236;28;19924;-74
2023/12/01 16:27:07;;;;;;;;;;;;;;;;;;5089498;28;19932;-75
2023/12/01 16:29:33;;;;;;;;;;;;;;;;;;5085976;28;19976;-74
2023/12/01 16:32:00;;;;;;;;;;;;;;;;;;5085523;28;19928;-77
2023/12/01 16:34:26;;;;;;;;;;;;;;;;;;5069449;28;19924;-74
2023/12/01 16:36:53;;;;;;;;;;;;;;;;;;5092588;28;19927;-76
2023/12/01 16:39:19;;;;;;;;;;;;;;;;;;5083836;28;20312;-76
2023/12/01 16:41:46;;;;;;;;;;;;;;;;;;5085424;28;20344;-76
2023/12/01 16:44:13;;;;;;;;;;;;;;;;;;5088439;28;20274;-76